Time;durP1;ratioP1;P1;durP2;ratioP2;P2;SDS_P1;SDS_P2;PMS_P1;PMS_P2;Temp;Humidity;BMP_temperature;BMP_pressure;BME280_temperature;BME280_humidity;BME280_pressure;Samples;Min_cycle;Max_cycle;Signal;HPM_P1;HPM_P2
2022/04/01 00:00:48;;;;;;;1.70;1.35;;;1.60;99.90;;;;;;4996003;28;20791;-79
2022/04/01 00:03:14;;;;;;;2.08;1.90;;;1.60;99.90;;;;;;4995880;28;20099;-79
2022/04/01 00:05:40;;;;;;;2.15;1.55;;;1.60;99.90;;;;;;5013584;28;20042;-79
2022/04/01 00:08:05;;;;;;;4.35;1.77;;;1.60;99.90;;;;;;5014505;28;20045;-80
2022/04/01 00:10:31;;;;;;;2.05;1.50;;;1.60;99.90;;;;;;4996980;28;20088;-79
2022/04/01 00:12:57;;;;;;;2.88;1.73;;;1.70;99.90;;;;;;4997270;28;20088;-80
2022/04/01 00:15:22;;;;;;;2.50;1.92;;;1.80;99.90;;;;;;4998186;28;20053;-80
2022/04/01 00:17:48;;;;;;;2.63;1.88;;;1.70;99.90;;;;;;4998712;28;20041;-80
2022/04/01 00:20:14;;;;;;;1.38;1.15;;;1.70;99.90;;;;;;5015087;28;20049;-80
2022/04/01 00:22:41;;;;;;;2.08;1.80;;;1.70;99.90;;;;;;5016065;28;20057;-80
2022/04/01 00:25:07;;;;;;;2.80;1.73;;;1.70;99.90;;;;;;5014590;28;20045;-80
2022/04/01 00:27:33;;;;;;;4.65;1.55;;;1.70;99.90;;;;;;5015486;28;20057;-80
2022/04/01 00:29:59;;;;;;;4.57;1.52;;;1.80;99.90;;;;;;5014957;28;20084;-80
2022/04/01 00:32:25;;;;;;;2.03;1.30;;;1.70;99.90;;;;;;4995549;28;20133;-80
2022/04/01 00:34:51;;;;;;;1.98;1.40;;;1.70;99.90;;;;;;5001230;28;20494;-80
2022/04/01 00:37:17;;;;;;;3.40;1.40;;;1.70;99.90;;;;;;4980539;28;20136;-80
2022/04/01 00:39:43;;;;;;;2.33;1.73;;;1.80;99.90;;;;;;4997933;28;20127;-80
2022/04/01 00:42:09;;;;;;;1.85;1.42;;;1.80;99.90;;;;;;5014145;28;20055;-80
2022/04/01 00:44:38;;;;;;;2.25;1.50;;;1.80;99.90;;;;;;5000811;28;20544;-79
2022/04/01 00:47:12;;;;;;;2.63;1.10;;;1.80;99.90;;;;;;5018158;28;20049;-79
2022/04/01 00:49:39;;;;;;;2.50;1.30;;;1.80;99.90;;;;;;4999735;28;20098;-79
2022/04/01 00:52:08;;;;;;;1.65;1.30;;;1.80;99.90;;;;;;5019546;28;20135;-80
2022/04/01 00:54:35;;;;;;;2.33;2.13;;;1.80;99.90;;;;;;5037348;28;20048;-80
2022/04/01 00:57:06;;;;;;;4.32;2.05;;;1.90;99.90;;;;;;5007598;28;20049;-80
2022/04/01 00:59:32;;;;;;;2.95;2.17;;;1.90;99.90;;;;;;5021971;28;20928;-80
2022/04/01 01:01:59;;;;;;;2.00;1.30;;;1.90;99.90;;;;;;5037388;28;20090;-80
2022/04/01 01:04:25;;;;;;;1.98;1.45;;;1.90;99.90;;;;;;5019573;28;20056;-79
2022/04/01 01:06:56;;;;;;;2.83;1.35;;;1.90;99.90;;;;;;5013148;28;20107;-79
2022/04/01 01:09:23;;;;;;;1.23;1.17;;;1.90;99.90;;;;;;5019074;28;20045;-78
2022/04/01 01:11:50;;;;;;;1.52;1.42;;;1.90;99.90;;;;;;5038562;28;20057;-78
2022/04/01 01:14:33;;;;;;;1.63;1.20;;;1.90;99.90;;;;;;5019972;28;20044;-78
2022/04/01 01:16:59;;;;;;;4.43;1.35;;;1.90;99.90;;;;;;5038278;28;20140;-78
2022/04/01 01:19:27;;;;;;;1.90;1.10;;;1.90;99.90;;;;;;5037928;28;20045;-78
2022/04/01 01:21:54;;;;;;;1.50;1.00;;;1.90;99.90;;;;;;5037609;28;20041;-78
2022/04/01 01:24:28;;;;;;;1.75;1.65;;;2.00;99.90;;;;;;5020369;28;20052;-78
2022/04/01 01:26:54;;;;;;;;;;;2.00;99.90;;;;;;5020747;28;20052;-78
2022/04/01 01:29:25;;;;;;;1.65;1.40;;;1.90;99.90;;;;;;5019472;28;20325;-79
2022/04/01 01:31:52;;;;;;;1.60;1.10;;;2.00;99.90;;;;;;5038937;28;20048;-78
2022/04/01 01:34:18;;;;;;;1.90;1.38;;;2.00;99.90;;;;;;5021693;28;20148;-79
2022/04/01 01:36:45;;;;;;;2.97;1.67;;;2.00;99.90;;;;;;4997636;28;20042;-79
2022/04/01 01:39:10;;;;;;;2.22;1.10;;;2.10;99.90;;;;;;4997979;28;20092;-79
2022/04/01 01:41:36;;;;;;;3.22;1.30;;;2.10;99.90;;;;;;4996517;28;20139;-79
2022/04/01 01:44:04;;;;;;;2.53;1.27;;;2.10;99.90;;;;;;5018647;28;20053;-79
2022/04/01 01:46:29;;;;;;;1.67;1.40;;;2.10;99.90;;;;;;5018641;28;20051;-79
2022/04/01 01:48:55;;;;;;;5.97;1.38;;;2.10;99.90;;;;;;5019435;28;20070;-79
2022/04/01 01:56:50;;;;;;;2.83;1.55;;;2.10;99.90;;;;;;5037279;28;20052;-79
2022/04/01 01:59:16;;;;;;;2.33;1.67;;;2.20;99.90;;;;;;5019056;28;20067;-79
2022/04/01 02:01:45;;;;;;;3.03;1.33;;;2.20;99.90;;;;;;5019350;28;20484;-79
2022/04/01 02:04:11;;;;;;;3.10;1.38;;;2.20;99.90;;;;;;5036740;28;20045;-79
2022/04/01 02:06:38;;;;;;;5.07;1.88;;;2.20;99.90;;;;;;5037362;28;20127;-80
2022/04/01 02:09:04;;;;;;;1.98;1.40;;;2.20;99.90;;;;;;5018456;28;20338;-79
2022/04/01 02:11:30;;;;;;;3.15;2.67;;;2.30;99.90;;;;;;5027810;28;20136;-80
2022/04/01 02:13:56;;;;;;;1.70;1.10;;;2.30;99.90;;;;;;4997764;28;20107;-80
2022/04/01 02:16:22;;;;;;;2.67;1.70;;;2.20;99.90;;;;;;5000616;28;20049;-79
2022/04/01 02:18:49;;;;;;;2.17;1.50;;;2.20;99.90;;;;;;5016246;28;20753;-80
2022/04/01 02:21:15;;;;;;;1.40;1.30;;;2.30;99.90;;;;;;5026009;28;20072;-80
2022/04/01 02:23:46;;;;;;;1.88;1.42;;;2.20;99.90;;;;;;5036643;28;20710;-80
2022/04/01 02:26:15;;;;;;;2.40;1.50;;;2.20;99.90;;;;;;5006480;28;20053;-79
2022/04/01 02:28:42;;;;;;;1.45;0.95;;;2.20;99.90;;;;;;5013166;28;20148;-80
2022/04/01 02:31:08;;;;;;;2.78;1.17;;;2.20;99.90;;;;;;5034619;28;20045;-80
2022/04/01 02:33:35;;;;;;;3.65;1.10;;;2.20;99.90;;;;;;5023625;28;20042;-80
2022/04/01 02:36:06;;;;;;;1.30;1.13;;;2.20;99.90;;;;;;5016719;28;20050;-79
2022/04/01 02:38:32;;;;;;;2.92;1.30;;;2.20;99.90;;;;;;5033382;28;20122;-79
2022/04/01 02:40:58;;;;;;;4.35;1.27;;;2.20;99.90;;;;;;5001004;28;20041;-79
2022/04/01 02:43:25;;;;;;;1.25;0.85;;;2.20;99.90;;;;;;4996849;28;20871;-79
2022/04/01 02:45:51;;;;;;;1.48;1.35;;;2.20;99.90;;;;;;4986952;28;20050;-79
2022/04/01 02:48:18;;;;;;;2.90;1.30;;;2.20;99.90;;;;;;4996254;28;20057;-79
2022/04/01 02:50:45;;;;;;;1.25;1.10;;;2.30;99.90;;;;;;4988313;28;20131;-79
2022/04/01 02:53:12;;;;;;;2.47;1.20;;;2.20;99.90;;;;;;4978271;28;20882;-79
2022/04/01 02:55:38;;;;;;;1.40;1.30;;;2.20;99.90;;;;;;5020961;28;20571;-79
2022/04/01 02:58:08;;;;;;;3.33;1.50;;;2.20;99.90;;;;;;5035252;28;20049;-80
2022/04/01 03:00:35;;;;;;;1.63;1.52;;;2.20;99.90;;;;;;5035981;28;20060;-79
2022/04/01 03:03:06;;;;;;;2.22;1.48;;;2.20;99.90;;;;;;5018329;28;20088;-77
2022/04/01 03:05:32;;;;;;;2.75;1.73;;;2.20;99.90;;;;;;5036080;28;20052;-77
2022/04/01 03:07:58;;;;;;;1.30;0.93;;;2.20;99.90;;;;;;5017571;28;20077;-77
2022/04/01 03:10:24;;;;;;;2.17;1.10;;;2.20;99.90;;;;;;5035325;28;20227;-77
2022/04/01 03:12:50;;;;;;;8.75;2.28;;;2.20;99.90;;;;;;5036358;28;20193;-77
2022/04/01 03:15:17;;;;;;;6.88;1.25;;;2.30;99.90;;;;;;5035271;28;20048;-77
2022/04/01 03:17:43;;;;;;;1.92;1.30;;;2.30;99.90;;;;;;5035832;28;20045;-78
2022/04/01 03:20:13;;;;;;;2.58;1.48;;;2.30;99.90;;;;;;5008737;28;20077;-77
2022/04/01 03:22:42;;;;;;;2.20;1.55;;;2.30;99.90;;;;;;4995559;28;20064;-78
2022/04/01 03:25:12;;;;;;;2.45;1.27;;;2.30;99.90;;;;;;4978134;28;20615;-79
2022/04/01 03:27:37;;;;;;;3.00;1.42;;;2.30;99.90;;;;;;4996674;28;20088;-80
2022/04/01 03:30:03;;;;;;;1.20;1.10;;;2.30;99.90;;;;;;5025087;28;20152;-79
2022/04/01 03:32:29;;;;;;;1.58;1.20;;;2.30;99.90;;;;;;5036335;28;20045;-79
2022/04/01 03:34:55;;;;;;;2.65;1.08;;;2.20;99.90;;;;;;5035654;28;20135;-79
2022/04/01 03:37:20;;;;;;;1.52;1.17;;;2.30;99.90;;;;;;5035370;28;20053;-79
2022/04/01 03:39:47;;;;;;;1.75;1.52;;;2.30;99.90;;;;;;5035457;28;20116;-80
2022/04/01 03:42:13;;;;;;;3.60;1.52;;;2.40;99.90;;;;;;4997946;28;20045;-80
2022/04/01 03:44:41;;;;;;;1.25;1.15;;;2.30;99.90;;;;;;4979473;28;20054;-79
2022/04/01 03:47:20;;;;;;;1.20;1.10;;;2.30;99.90;;;;;;4996435;28;20113;-80
2022/04/01 03:49:51;;;;;;;1.70;1.20;;;2.30;99.90;;;;;;4983876;28;20045;-79
2022/04/01 03:52:18;;;;;;;3.65;1.90;;;2.40;99.90;;;;;;5016193;28;21005;-79
2022/04/01 03:54:47;;;;;;;1.42;1.20;;;2.40;99.90;;;;;;5016678;28;20045;-79
2022/04/01 03:57:15;;;;;;;1.77;1.42;;;2.40;99.90;;;;;;5016587;28;20060;-79
2022/04/01 03:59:41;;;;;;;1.95;1.30;;;2.40;99.90;;;;;;5035384;28;20037;-80
2022/04/01 04:02:12;;;;;;;3.90;1.42;;;2.40;99.90;;;;;;5018479;28;20842;-79
2022/04/01 04:04:39;;;;;;;2.50;1.25;;;2.40;99.90;;;;;;5035708;28;20068;-79
2022/04/01 04:07:09;;;;;;;3.00;1.65;;;2.40;99.90;;;;;;5035030;28;20667;-80
2022/04/01 04:09:39;;;;;;;3.10;1.10;;;2.40;99.90;;;;;;5039320;28;20685;-79
2022/04/01 04:12:07;;;;;;;2.60;1.38;;;2.40;99.90;;;;;;5020511;28;20131;-79
2022/04/01 04:14:33;;;;;;;8.25;2.33;;;2.40;99.90;;;;;;5039733;28;20063;-79
2022/04/01 04:17:08;;;;;;;2.65;1.10;;;2.40;99.90;;;;;;5039225;28;20045;-79
2022/04/01 04:19:48;;;;;;;3.72;2.75;;;2.40;99.90;;;;;;5039862;28;20276;-80
2022/04/01 04:22:16;;;;;;;1.83;1.23;;;2.50;99.90;;;;;;4999777;28;20141;-80
2022/04/01 04:24:47;;;;;;;1.42;1.33;;;2.40;99.90;;;;;;5004396;28;20132;-79
2022/04/01 04:27:16;;;;;;;2.65;1.42;;;2.40;99.90;;;;;;5002050;28;20056;-79
2022/04/01 04:29:47;;;;;;;2.83;1.13;;;2.50;99.90;;;;;;4989536;28;20052;-80
2022/04/01 04:32:55;;;;;;;47.33;4.30;;;2.50;99.90;;;;;;4980664;28;20107;-80
2022/04/01 04:35:21;;;;;;;1.30;1.20;;;2.50;99.90;;;;;;4986174;28;20064;-79
2022/04/01 04:37:49;;;;;;;1.13;1.10;;;2.50;99.90;;;;;;5026507;28;20045;-80
2022/04/01 04:40:18;;;;;;;1.38;1.05;;;2.50;99.90;;;;;;5033385;28;20045;-80
2022/04/01 04:42:45;;;;;;;2.63;1.05;;;2.50;99.90;;;;;;4999634;28;20064;-79
2022/04/01 04:45:18;;;;;;;2.38;1.23;;;2.50;99.90;;;;;;4980719;28;20607;-78
2022/04/01 04:47:45;;;;;;;2.55;2.00;;;2.50;99.90;;;;;;4996248;28;20165;-79
2022/04/01 04:50:12;;;;;;;2.80;2.60;;;2.50;99.90;;;;;;5009816;28;20143;-79
2022/04/01 04:52:39;;;;;;;1.73;1.27;;;2.50;99.90;;;;;;5014242;28;20045;-78
2022/04/01 04:55:13;;;;;;;2.78;1.15;;;2.40;99.90;;;;;;4994784;28;20045;-78
2022/04/01 04:57:41;;;;;;;2.00;1.40;;;2.40;99.90;;;;;;5013211;28;20042;-78
2022/04/01 05:00:10;;;;;;;1.40;1.30;;;2.40;99.90;;;;;;5013061;28;20548;-78
2022/04/01 05:02:48;;;;;;;1.52;1.17;;;2.40;99.90;;;;;;5014462;28;20680;-78
2022/04/01 05:05:36;;;;;;;0.98;0.90;;;2.40;99.90;;;;;;5014354;28;20064;-76
2022/04/01 05:08:15;;;;;;;0.75;0.70;;;2.40;99.90;;;;;;5013687;28;20064;-77
2022/04/01 05:10:42;;;;;;;3.05;1.25;;;2.30;99.90;;;;;;5015613;28;20061;-76
2022/04/01 05:13:43;;;;;;;2.95;1.00;;;2.40;99.90;;;;;;5013368;28;20045;-76
2022/04/01 05:16:32;;;;;;;1.17;1.08;;;2.30;99.90;;;;;;4994289;28;21040;-77
2022/04/01 05:19:25;;;;;;;2.30;1.20;;;2.40;99.90;;;;;;5013131;28;20042;-76
2022/04/01 05:22:00;;;;;;;3.47;1.05;;;2.40;99.90;;;;;;5012689;28;20041;-77
2022/04/01 05:24:42;;;;;;;3.65;1.10;;;2.40;99.90;;;;;;4995595;28;20101;-77
2022/04/01 05:27:30;;;;;;;1.80;1.30;;;2.40;99.90;;;;;;5015320;28;20107;-77
2022/04/01 05:30:18;;;;;;;2.05;1.02;;;2.40;99.90;;;;;;5011061;28;20198;-77
2022/04/01 05:32:58;;;;;;;1.65;1.40;;;2.40;99.90;;;;;;5017738;28;20461;-76
2022/04/01 05:35:27;;;;;;;2.05;1.00;;;2.60;99.90;;;;;;5034351;28;20517;-77
2022/04/01 05:37:54;;;;;;;2.60;1.00;;;2.40;99.90;;;;;;5034913;28;20052;-77
2022/04/01 05:40:21;;;;;;;3.60;1.95;;;2.50;99.90;;;;;;5028661;28;20095;-76
2022/04/01 05:42:48;;;;;;;1.40;1.25;;;2.50;99.90;;;;;;4995324;28;20128;-79
2022/04/01 05:45:16;;;;;;;1.58;1.30;;;2.50;99.90;;;;;;4995438;28;21021;-79
2022/04/01 05:47:44;;;;;;;3.10;1.35;;;2.60;99.90;;;;;;4978302;28;20474;-78
2022/04/01 05:50:09;;;;;;;1.85;1.00;;;2.50;99.90;;;;;;4990630;28;20564;-78
2022/04/01 05:52:37;;;;;;;2.97;1.55;;;2.60;99.90;;;;;;5034759;28;20047;-79
2022/04/01 05:55:03;;;;;;;3.90;1.27;;;2.60;99.90;;;;;;5016995;28;20507;-76
2022/04/01 05:57:29;;;;;;;2.78;1.02;;;2.60;99.90;;;;;;5016145;28;20418;-76
2022/04/01 05:59:55;;;;;;;2.25;1.25;;;2.60;99.90;;;;;;5034696;28;20060;-76
2022/04/01 06:02:47;;;;;;;2.30;1.30;;;2.70;99.90;;;;;;5034450;28;20060;-75
2022/04/01 06:05:31;;;;;;;1.70;1.50;;;2.70;99.90;;;;;;5034501;28;20060;-77
2022/04/01 06:08:02;;;;;;;1.20;1.00;;;2.70;99.90;;;;;;5017287;28;20110;-77
2022/04/01 06:10:44;;;;;;;1.10;1.00;;;2.80;99.90;;;;;;5015779;28;20598;-76
2022/04/01 06:13:19;;;;;;;1.33;1.15;;;2.80;99.90;;;;;;5034224;28;20045;-77
2022/04/01 06:16:11;;;;;;;1.20;1.10;;;2.80;99.90;;;;;;5016412;28;20234;-76
2022/04/01 06:19:18;;;;;;;2.03;1.30;;;2.80;99.90;;;;;;5033995;28;20136;-76
2022/04/01 06:21:54;;;;;;;3.38;1.17;;;2.80;99.90;;;;;;4999432;28;20544;-76
2022/04/01 06:24:42;;;;;;;2.33;1.85;;;2.80;99.90;;;;;;4993849;28;20129;-77
2022/04/01 06:27:11;;;;;;;1.80;1.33;;;2.80;99.90;;;;;;4995073;28;20111;-76
2022/04/01 06:29:43;;;;;;;1.55;0.98;;;2.90;99.90;;;;;;5021448;28;20040;-77
2022/04/01 06:32:18;;;;;;;1.20;0.90;;;2.90;99.90;;;;;;5016709;28;20899;-78
2022/04/01 06:34:56;;;;;;;1.48;1.10;;;2.90;99.90;;;;;;5035992;28;20634;-78
2022/04/01 06:37:27;;;;;;;2.55;1.17;;;2.90;99.90;;;;;;5036402;28;20119;-78
2022/04/01 06:40:00;;;;;;;3.70;2.03;;;3.00;99.90;;;;;;5035753;28;20279;-78
2022/04/01 06:42:29;;;;;;;2.90;1.33;;;3.00;99.90;;;;;;4979863;28;20867;-78
2022/04/01 06:44:55;;;;;;;2.22;1.27;;;3.10;99.90;;;;;;4978817;28;20145;-78
2022/04/01 06:47:21;;;;;;;4.45;1.33;;;3.00;99.90;;;;;;4995154;28;20053;-78
2022/04/01 06:49:47;;;;;;;2.47;1.20;;;3.00;99.90;;;;;;5002325;28;20083;-78
2022/04/01 06:52:12;;;;;;;1.38;1.00;;;3.00;99.90;;;;;;5014794;28;20044;-78
2022/04/01 06:54:38;;;;;;;1.20;1.10;;;3.00;99.90;;;;;;5014957;28;20077;-77
2022/04/01 06:57:04;;;;;;;2.80;1.20;;;3.00;99.90;;;;;;4997148;28;20042;-79
2022/04/01 06:59:29;;;;;;;1.70;0.90;;;3.00;99.90;;;;;;5014430;28;20373;-78
2022/04/01 07:01:55;;;;;;;1.42;1.20;;;3.10;99.90;;;;;;5014852;28;20076;-78
2022/04/01 07:04:20;;;;;;;1.67;1.30;;;3.10;99.90;;;;;;5014858;28;20049;-78
2022/04/01 07:06:47;;;;;;;2.08;1.00;;;3.10;99.90;;;;;;5014330;28;20077;-78
2022/04/01 07:09:12;;;;;;;1.23;1.13;;;3.10;99.90;;;;;;5013400;28;20129;-79
2022/04/01 07:11:38;;;;;;;3.35;1.90;;;3.20;99.90;;;;;;5013753;28;20053;-78
2022/04/01 07:14:04;;;;;;;1.25;0.80;;;3.10;99.90;;;;;;5012748;28;20033;-80
2022/04/01 07:16:29;;;;;;;2.58;1.55;;;3.20;99.90;;;;;;5013259;28;20056;-79
2022/04/01 07:18:55;;;;;;;2.25;1.13;;;3.20;99.90;;;;;;4992903;28;20049;-79
2022/04/01 07:21:20;;;;;;;1.13;1.00;;;3.10;99.90;;;;;;5013636;28;20103;-80
2022/04/01 07:23:46;;;;;;;2.38;1.50;;;3.10;99.90;;;;;;5014389;28;20605;-79
2022/04/01 07:26:12;;;;;;;2.60;1.67;;;3.10;99.90;;;;;;5014315;28;20045;-80
2022/04/01 07:28:37;;;;;;;2.42;1.25;;;3.10;99.90;;;;;;5015121;28;20041;-80
2022/04/01 07:32:29;;;;;;;2.05;1.15;;;3.20;99.90;;;;;;5036293;28;20080;-80
2022/04/01 07:33:48;;;;;;;5.38;1.50;;;3.20;99.90;;;;;;5018291;28;20076;-80
2022/04/01 07:36:14;;;;;;;1.70;1.10;;;3.20;99.90;;;;;;5035396;28;20114;-79
2022/04/01 07:38:40;;;;;;;4.22;1.48;;;3.20;99.90;;;;;;5024037;28;20069;-80
2022/04/01 07:41:06;;;;;;;1.80;1.38;;;3.20;99.90;;;;;;4993953;28;20810;-80
2022/04/01 07:43:31;;;;;;;3.75;1.60;;;3.20;99.90;;;;;;5013004;28;20041;-80
2022/04/01 07:45:57;;;;;;;2.10;1.60;;;3.20;99.90;;;;;;4998341;28;20046;-80
2022/04/01 07:48:23;;;;;;;1.40;1.00;;;3.20;99.90;;;;;;5015899;28;20033;-80
2022/04/01 07:50:48;;;;;;;1.77;1.50;;;3.20;99.90;;;;;;5018813;28;20215;-81
2022/04/01 07:53:16;;;;;;;2.05;1.50;;;3.20;99.90;;;;;;5016774;28;20060;-79
2022/04/01 07:55:43;;;;;;;1.80;1.55;;;3.20;99.90;;;;;;5016829;28;20049;-78
2022/04/01 07:58:10;;;;;;;1.67;1.02;;;3.10;99.90;;;;;;5017310;28;20045;-78
2022/04/01 08:00:35;;;;;;;1.92;1.58;;;3.10;99.90;;;;;;4999835;28;20088;-77
2022/04/01 08:03:01;;;;;;;2.97;1.10;;;3.00;99.90;;;;;;5015079;28;20132;-79
2022/04/01 08:05:26;;;;;;;2.00;1.73;;;3.00;99.90;;;;;;4999100;28;20053;-79
2022/04/01 08:07:52;;;;;;;4.03;1.75;;;3.10;99.90;;;;;;5016840;28;20144;-78
2022/04/01 08:10:18;;;;;;;2.25;1.40;;;3.00;99.90;;;;;;4998861;28;20136;-79
2022/04/01 08:12:43;;;;;;;3.40;1.55;;;3.00;99.90;;;;;;5016994;28;20107;-79
2022/04/01 08:15:10;;;;;;;1.85;1.58;;;2.90;99.90;;;;;;5011307;28;20053;-82
2022/04/01 08:17:35;;;;;;;2.53;1.50;;;2.90;99.90;;;;;;5015583;28;20053;-80
2022/04/01 08:20:01;;;;;;;5.10;1.73;;;2.90;99.90;;;;;;4998792;28;20060;-79
2022/04/01 08:22:26;;;;;;;3.17;1.23;;;2.80;99.90;;;;;;5014217;28;20079;-77
2022/04/01 08:24:52;;;;;;;2.20;2.00;;;2.70;99.90;;;;;;5014664;28;20045;-80
2022/04/01 08:27:17;;;;;;;2.08;1.30;;;2.70;99.90;;;;;;4997761;28;20045;-81
2022/04/01 08:29:44;;;;;;;1.98;1.58;;;2.70;99.90;;;;;;5018556;28;20053;-81
2022/04/01 08:32:10;;;;;;;5.90;2.17;;;2.60;99.90;;;;;;5016295;28;20049;-81
2022/04/01 08:34:37;;;;;;;2.03;1.70;;;2.50;99.90;;;;;;5017150;28;20509;-81
2022/04/01 08:37:03;;;;;;;5.22;2.20;;;2.50;99.90;;;;;;5020353;28;20046;-81
2022/04/01 08:39:28;;;;;;;3.42;2.22;;;2.50;99.90;;;;;;5016431;28;20049;-82
2022/04/01 08:41:56;;;;;;;4.22;1.98;;;2.60;99.90;;;;;;4998988;28;20084;-81
2022/04/01 08:44:21;;;;;;;2.40;1.90;;;2.60;99.90;;;;;;5016373;28;20041;-82
2022/04/01 08:46:47;;;;;;;5.72;2.85;;;2.50;99.90;;;;;;4998510;28;21472;-81
2022/04/01 08:49:12;;;;;;;4.18;2.95;;;2.70;99.90;;;;;;5016337;28;20373;-82
2022/04/01 08:51:39;;;;;;;4.85;3.35;;;2.60;99.90;;;;;;5016650;28;20044;-82
2022/04/01 08:54:05;;;;;;;6.13;3.45;;;2.70;99.90;;;;;;5016067;28;20050;-80
2022/04/01 08:56:31;;;;;;;3.67;2.72;;;2.50;99.90;;;;;;5016003;28;20076;-81
2022/04/01 08:58:56;;;;;;;4.18;3.45;;;2.60;99.90;;;;;;5015861;28;20045;-82
2022/04/01 09:01:22;;;;;;;5.95;3.78;;;2.60;99.90;;;;;;5016130;28;20069;-82
2022/04/01 09:03:48;;;;;;;8.55;4.07;;;2.70;99.90;;;;;;5015415;28;20049;-82
2022/04/01 09:06:14;;;;;;;5.72;3.85;;;2.80;99.90;;;;;;5015212;28;20439;-82
2022/04/01 09:08:41;;;;;;;6.10;3.70;;;2.80;99.90;;;;;;5014772;28;20045;-78
2022/04/01 09:11:17;;;;;;;5.32;4.25;;;2.90;99.90;;;;;;5015388;28;20092;-79
2022/04/01 09:13:42;;;;;;;4.05;3.40;;;3.00;99.90;;;;;;5013971;28;20076;-78
2022/04/01 09:16:08;;;;;;;3.13;2.92;;;2.80;99.90;;;;;;5015759;28;20501;-78
2022/04/01 09:18:42;;;;;;;3.55;2.78;;;2.70;99.90;;;;;;4997576;28;20507;-79
2022/04/01 09:21:14;;;;;;;3.30;2.97;;;2.60;99.90;;;;;;4996820;28;20049;-79
2022/04/01 09:23:46;;;;;;;3.65;2.83;;;2.70;99.90;;;;;;4995542;28;20060;-79
2022/04/01 09:26:11;;;;;;;4.07;3.00;;;2.70;99.90;;;;;;5015393;28;20132;-79
2022/04/01 09:28:40;;;;;;;5.80;3.17;;;2.70;99.90;;;;;;5016626;28;20728;-79
2022/04/01 09:31:12;;;;;;;2.85;2.53;;;2.80;99.90;;;;;;5015694;28;20124;-80
2022/04/01 09:33:45;;;;;;;3.58;3.28;;;2.70;99.90;;;;;;5012643;28;20065;-80
2022/04/01 09:36:29;;;;;;;3.33;2.85;;;2.80;99.90;;;;;;4997906;28;20115;-79
2022/04/01 09:39:16;;;;;;;6.53;4.03;;;2.80;99.90;;;;;;5037829;28;20064;-79
2022/04/01 09:41:43;;;;;;;5.53;3.53;;;2.80;99.90;;;;;;4990161;28;20137;-79
2022/04/01 09:44:15;;;;;;;3.65;3.05;;;3.70;99.90;;;;;;4997941;28;20275;-80
2022/04/01 09:46:47;;;;;;;4.82;3.20;;;3.00;99.90;;;;;;4997928;28;20084;-79
2022/04/01 09:49:14;;;;;;;4.53;3.33;;;2.90;99.90;;;;;;4979548;28;20862;-80
2022/04/01 09:51:43;;;;;;;4.03;3.60;;;3.10;99.90;;;;;;5017012;28;20139;-80
2022/04/01 09:54:10;;;;;;;4.38;3.78;;;3.20;99.90;;;;;;5037197;28;20041;-79
2022/04/01 09:56:40;;;;;;;6.30;4.20;;;3.60;99.90;;;;;;5037394;28;20071;-80
2022/04/01 09:59:07;;;;;;;7.63;4.05;;;3.00;99.90;;;;;;5037132;28;20052;-80
2022/04/01 10:01:34;;;;;;;5.47;3.83;;;2.90;99.90;;;;;;5036661;28;20049;-80
2022/04/01 10:04:01;;;;;;;4.72;3.55;;;3.00;99.90;;;;;;5018568;28;20066;-79
2022/04/01 10:06:28;;;;;;;4.93;3.00;;;2.90;99.90;;;;;;5015640;28;20056;-79
2022/04/01 10:08:56;;;;;;;4.75;3.85;;;3.10;99.90;;;;;;5014671;28;20061;-80
2022/04/01 10:11:25;;;;;;;6.82;2.75;;;3.10;99.90;;;;;;5034391;28;20118;-79
2022/04/01 10:13:53;;;;;;;4.97;2.75;;;3.10;99.90;;;;;;5032871;28;20049;-80
2022/04/01 10:16:20;;;;;;;3.53;2.20;;;3.10;99.90;;;;;;5014341;28;20161;-78
2022/04/01 10:18:48;;;;;;;2.95;2.08;;;3.00;99.90;;;;;;5033476;28;20041;-77
2022/04/01 10:21:22;;;;;;;3.03;1.85;;;3.00;99.90;;;;;;5007795;28;20120;-80
2022/04/01 10:23:56;;;;;;;4.32;2.40;;;3.00;99.90;;;;;;4976342;28;20058;-79
2022/04/01 10:26:22;;;;;;;3.85;2.20;;;3.20;99.90;;;;;;5011761;28;20779;-80
2022/04/01 10:28:51;;;;;;;5.80;3.00;;;3.30;99.90;;;;;;5000180;28;20060;-79
2022/04/01 10:31:19;;;;;;;3.97;2.47;;;3.50;99.90;;;;;;5032845;28;20049;-80
2022/04/01 10:33:44;;;;;;;2.88;2.17;;;3.60;99.90;;;;;;5034381;28;20060;-79
2022/04/01 10:36:22;;;;;;;3.55;2.22;;;3.70;99.90;;;;;;5033623;28;20053;-79
2022/04/01 10:38:49;;;;;;;1.77;1.58;;;3.60;99.90;;;;;;5033456;28;20048;-79
2022/04/01 10:41:15;;;;;;;4.40;2.15;;;3.70;99.90;;;;;;4994963;28;20127;-78
2022/04/01 10:43:50;;;;;;;5.50;2.00;;;3.70;99.90;;;;;;4977122;28;20057;-78
2022/04/01 10:46:17;;;;;;;7.18;3.10;;;3.70;99.90;;;;;;4994596;28;20085;-79
2022/04/01 10:52:00;;;;;;;2.57;2.00;;;3.60;99.90;;;;;;5032959;28;20057;-79
2022/04/01 10:54:29;;;;;;;1.35;1.25;;;3.50;99.90;;;;;;5034229;28;20037;-79
2022/04/01 10:57:01;;;;;;;3.58;2.33;;;3.70;99.90;;;;;;5016226;28;20048;-79
2022/04/01 10:59:38;;;;;;;2.22;1.77;;;3.30;99.90;;;;;;5033151;28;20047;-78
2022/04/01 11:02:09;;;;;;;2.63;1.48;;;3.30;99.90;;;;;;5033833;28;20049;-79
2022/04/01 11:04:38;;;;;;;3.65;1.77;;;3.20;99.90;;;;;;5033879;28;20041;-78
2022/04/01 11:07:08;;;;;;;1.85;1.67;;;3.10;99.90;;;;;;5033535;28;20045;-79
2022/04/01 11:09:34;;;;;;;3.20;1.40;;;3.10;99.90;;;;;;5034286;28;20053;-80
2022/04/01 11:12:25;;;;;;;5.30;1.67;;;3.20;99.90;;;;;;5015058;28;20068;-79
2022/04/01 11:14:56;;;;;;;2.58;1.88;;;3.30;99.90;;;;;;5033940;28;20115;-79
2022/04/01 11:17:23;;;;;;;4.03;1.80;;;3.30;99.90;;;;;;5014522;28;20103;-80
2022/04/01 11:20:09;;;;;;;3.58;2.08;;;3.40;99.90;;;;;;5029631;28;20834;-79
2022/04/01 11:22:40;;;;;;;2.33;1.20;;;3.30;99.90;;;;;;4994491;28;20129;-79
2022/04/01 11:25:32;;;;;;;2.17;1.38;;;4.30;99.90;;;;;;4983885;28;20058;-79
2022/04/01 11:28:14;;;;;;;1.88;1.38;;;3.40;99.90;;;;;;5002330;28;20061;-79
2022/04/01 11:30:40;;;;;;;3.90;2.17;;;3.50;99.90;;;;;;5014934;28;20052;-79
2022/04/01 11:33:14;;;;;;;1.90;1.48;;;3.40;99.90;;;;;;5014637;28;20578;-79
2022/04/01 11:35:44;;;;;;;4.32;2.58;;;3.40;99.90;;;;;;5033157;28;20812;-79
2022/04/01 11:38:13;;;;;;;4.88;1.95;;;3.50;99.90;;;;;;5033017;28;20063;-79
2022/04/01 11:40:40;;;;;;;2.47;1.60;;;3.80;99.90;;;;;;5026686;28;20505;-79
2022/04/01 11:43:10;;;;;;;1.60;1.50;;;3.90;99.90;;;;;;5013657;28;20041;-78
2022/04/01 11:45:40;;;;;;;2.40;2.03;;;4.00;99.90;;;;;;4996647;28;20061;-79
2022/04/01 11:48:17;;;;;;;3.05;1.80;;;4.10;99.90;;;;;;5013606;28;20045;-79
2022/04/01 11:50:44;;;;;;;2.53;1.92;;;4.10;99.90;;;;;;5013499;28;20050;-78
2022/04/01 11:53:19;;;;;;;2.33;1.83;;;4.10;99.90;;;;;;4996060;28;20803;-78
2022/04/01 11:55:44;;;;;;;2.35;1.98;;;4.10;99.90;;;;;;5012899;28;20047;-78
2022/04/01 11:58:10;;;;;;;4.80;2.42;;;4.30;99.90;;;;;;5013059;28;20495;-78
2022/04/01 12:00:36;;;;;;;3.35;2.50;;;4.40;99.90;;;;;;5014233;28;20080;-78
2022/04/01 12:03:01;;;;;;;2.63;1.55;;;4.50;99.90;;;;;;4994503;28;20088;-78
2022/04/01 12:05:30;;;;;;;3.38;1.77;;;4.70;99.90;;;;;;5023325;28;20037;-77
2022/04/01 12:10:49;;;;;;;3.08;2.25;;;4.50;99.90;;;;;;4995447;28;20486;-77
2022/04/01 12:13:15;;;;;;;3.90;1.85;;;4.70;99.90;;;;;;5014091;28;20054;-77
2022/04/01 12:15:43;;;;;;;2.92;1.73;;;4.80;99.90;;;;;;5012576;28;20056;-76
2022/04/01 12:18:14;;;;;;;3.22;2.10;;;5.00;99.90;;;;;;4996063;28;20127;-77
2022/04/01 12:20:42;;;;;;;2.72;1.48;;;4.90;99.90;;;;;;5013620;28;20099;-77
2022/04/01 12:23:08;;;;;;;4.07;1.60;;;5.20;99.90;;;;;;5012752;28;20095;-77
2022/04/01 12:25:36;;;;;;;2.22;1.52;;;5.30;99.90;;;;;;5013062;28;20965;-77
2022/04/01 12:28:04;;;;;;;1.92;1.48;;;4.80;99.90;;;;;;5012817;28;20049;-78
2022/04/01 12:30:36;;;;;;;2.28;1.20;;;5.10;99.90;;;;;;5033686;28;20053;-77
2022/04/01 12:33:06;;;;;;;1.70;1.58;;;5.20;99.90;;;;;;5032742;28;20116;-77
2022/04/01 12:35:32;;;;;;;2.58;1.90;;;5.20;99.90;;;;;;4996439;28;20111;-77
2022/04/01 12:38:10;;;;;;;1.60;1.48;;;5.10;99.90;;;;;;4997079;28;20041;-77
2022/04/01 12:40:45;;;;;;;1.58;1.48;;;5.20;99.90;;;;;;4996554;28;20510;-77
2022/04/01 12:43:32;;;;;;;8.35;2.15;;;5.20;99.90;;;;;;5011560;28;20063;-76
2022/04/01 12:46:05;;;;;;;4.18;2.17;;;5.10;99.90;;;;;;5012302;28;20052;-76
2022/04/01 12:48:38;;;;;;;2.93;1.50;;;5.60;99.90;;;;;;4993357;28;20041;-76
2022/04/01 12:51:04;;;;;;;2.60;1.80;;;5.20;99.90;;;;;;5029582;28;20092;-76
2022/04/01 12:53:30;;;;;;;1.38;1.27;;;5.10;99.90;;;;;;5018055;28;20164;-73
2022/04/01 12:56:19;;;;;;;1.45;1.33;;;5.10;99.90;;;;;;5035552;28;20048;-76
2022/04/01 12:58:49;;;;;;;2.95;1.40;;;5.10;99.90;;;;;;5017519;28;20055;-75
2022/04/01 13:01:19;;;;;;;2.80;1.40;;;5.20;99.90;;;;;;5017600;28;20454;-76
2022/04/01 13:03:48;;;;;;;2.08;1.40;;;4.50;99.90;;;;;;5033627;28;20049;-75
2022/04/01 13:06:15;;;;;;;4.20;1.98;;;5.10;99.90;;;;;;5022619;28;20053;-75
2022/04/01 13:08:42;;;;;;;3.25;1.50;;;5.10;99.90;;;;;;5034770;28;20041;-75
2022/04/01 13:11:14;;;;;;;3.17;1.60;;;5.20;99.90;;;;;;5035826;28;20049;-74
2022/04/01 13:13:51;;;;;;;5.45;1.70;;;5.20;99.90;;;;;;5035275;28;20047;-75
2022/04/01 13:16:16;;;;;;;1.85;1.52;;;5.30;99.90;;;;;;5035036;28;20846;-75
2022/04/01 13:18:42;;;;;;;5.03;1.95;;;5.30;99.90;;;;;;5035237;28;20048;-75
2022/04/01 13:21:08;;;;;;;2.17;1.70;;;5.30;99.90;;;;;;5022192;28;20048;-75